createdAt,value
2023-07-06T00:00:51.541Z,239.99
2023-07-06T00:01:51.683Z,240.48
2023-07-06T00:02:51.783Z,241.56
2023-07-06T00:03:51.800Z,240.94
2023-07-06T00:04:51.863Z,241.61
2023-07-06T00:05:51.975Z,242.77
2023-07-06T00:06:52.063Z,244.44
2023-07-06T00:07:52.168Z,244.06
2023-07-06T00:08:52.245Z,244.11
2023-07-06T00:09:52.344Z,246.45
2023-07-06T00:10:52.473Z,246.86
2023-07-06T00:11:52.567Z,246.99
2023-07-06T00:12:52.632Z,245.62
2023-07-06T00:13:52.762Z,244.72
2023-07-06T00:14:52.795Z,245.88
2023-07-06T00:15:53.042Z,244.29
2023-07-06T00:16:53.028Z,244.96
2023-07-06T00:17:53.140Z,243.64
2023-07-06T00:18:53.377Z,243.83
2023-07-06T00:19:53.260Z,243.91
2023-07-06T00:20:53.362Z,243.77
2023-07-06T00:21:53.476Z,244.69
2023-07-06T00:22:53.590Z,244.60
2023-07-06T00:23:53.668Z,244.47
2023-07-06T00:24:53.736Z,244.13
2023-07-06T00:25:54.158Z,244.43
2023-07-06T00:26:53.922Z,243.84
2023-07-06T00:27:54.018Z,242.63
2023-07-06T00:28:54.089Z,243.71
2023-07-06T00:29:54.166Z,243.18
2023-07-06T00:30:54.260Z,243.00
2023-07-06T00:31:54.377Z,243.49
2023-07-06T00:32:54.424Z,243.19
2023-07-06T00:33:54.438Z,243.15
2023-07-06T00:34:54.496Z,242.86
2023-07-06T00:35:54.782Z,243.44
2023-07-06T00:36:54.620Z,243.70
2023-07-06T00:37:54.659Z,242.43
2023-07-06T00:38:54.742Z,242.28
2023-07-06T00:39:54.819Z,241.06
2023-07-06T00:40:54.882Z,241.71
2023-07-06T00:41:54.951Z,242.80
2023-07-06T00:42:55.021Z,240.85
2023-07-06T00:43:55.140Z,242.24
2023-07-06T00:44:55.200Z,241.91
2023-07-06T00:45:55.613Z,241.84
2023-07-06T00:46:55.390Z,242.59
2023-07-06T00:47:55.503Z,242.48
2023-07-06T00:48:55.592Z,242.29
2023-07-06T00:49:55.651Z,240.72
2023-07-06T00:50:55.705Z,240.46
2023-07-06T00:51:55.796Z,239.78
2023-07-06T00:52:55.911Z,239.81
2023-07-06T00:53:55.959Z,240.52
2023-07-06T00:54:56.041Z,240.22
2023-07-06T00:55:56.302Z,241.07
2023-07-06T00:56:56.170Z,241.28
2023-07-06T00:57:56.239Z,243.19
2023-07-06T00:58:56.315Z,242.83
2023-07-06T00:59:56.388Z,243.33
2023-07-06T01:00:56.475Z,241.32
2023-07-06T01:01:56.561Z,241.69
2023-07-06T01:02:56.732Z,242.28
2023-07-06T01:03:56.702Z,242.30
2023-07-06T01:04:56.733Z,242.47
2023-07-06T01:05:57.034Z,242.30
2023-07-06T01:06:56.827Z,242.11
2023-07-06T01:07:56.863Z,243.15
2023-07-06T01:08:56.907Z,241.95
2023-07-06T01:09:56.952Z,242.41
2023-07-06T01:10:56.988Z,242.65
2023-07-06T01:11:57.022Z,243.71
2023-07-06T01:12:57.065Z,244.69
2023-07-06T01:13:57.242Z,245.08
2023-07-06T01:14:58.995Z,244.47
2023-07-06T01:15:57.673Z,244.40
2023-07-06T01:16:57.466Z,243.27
2023-07-06T01:17:57.533Z,243.70
2023-07-06T01:18:57.580Z,244.59
2023-07-06T01:19:57.658Z,245.21
2023-07-06T01:20:57.772Z,245.32
2023-07-06T01:21:57.869Z,246.07
2023-07-06T01:22:57.974Z,246.10
2023-07-06T01:23:58.083Z,245.23
2023-07-06T01:24:58.192Z,245.50
2023-07-06T01:25:58.761Z,245.38
2023-07-06T01:26:58.409Z,244.77
2023-07-06T01:27:58.502Z,244.03
2023-07-06T01:28:58.657Z,244.68
2023-07-06T01:29:58.684Z,241.45
2023-07-06T01:30:58.763Z,241.46
2023-07-06T01:31:58.749Z,240.34
2023-07-06T01:32:58.788Z,240.65
2023-07-06T01:33:58.827Z,241.33
2023-07-06T01:34:58.861Z,240.54
2023-07-06T01:35:58.901Z,240.73
2023-07-06T01:36:58.937Z,241.62
2023-07-06T01:37:58.992Z,240.47
2023-07-06T01:38:59.017Z,242.13
2023-07-06T01:39:59.077Z,242.41
2023-07-06T01:40:59.107Z,241.49
2023-07-06T01:41:59.146Z,241.60
2023-07-06T01:42:59.181Z,240.97
2023-07-06T01:43:59.225Z,240.67
2023-07-06T01:44:59.273Z,242.48
2023-07-06T01:45:59.375Z,243.49
2023-07-06T01:46:59.408Z,243.97
2023-07-06T01:47:59.456Z,244.90
2023-07-06T01:48:59.485Z,246.60
2023-07-06T01:49:59.585Z,245.73
2023-07-06T01:50:59.690Z,247.61
2023-07-06T01:51:59.810Z,246.70
2023-07-06T01:52:59.837Z,246.74
2023-07-06T01:53:59.884Z,246.39
2023-07-06T01:55:00.023Z,246.12
2023-07-06T01:55:59.947Z,244.39
2023-07-06T01:56:59.993Z,245.86
2023-07-06T01:58:01.629Z,244.83
2023-07-06T01:59:00.075Z,245.72
2023-07-06T02:00:00.177Z,246.72
2023-07-06T02:01:00.268Z,246.41
2023-07-06T02:02:00.293Z,245.92
2023-07-06T02:03:00.529Z,246.42
2023-07-06T02:04:00.443Z,247.87
2023-07-06T02:05:00.578Z,247.11
2023-07-06T02:06:00.673Z,246.90
2023-07-06T02:07:00.781Z,246.80
2023-07-06T02:08:00.904Z,246.63
2023-07-06T02:09:00.984Z,246.90
2023-07-06T02:10:01.070Z,248.28
2023-07-06T02:11:01.170Z,246.95
2023-07-06T02:12:01.279Z,247.63
2023-07-06T02:13:01.392Z,246.33
2023-07-06T02:14:01.545Z,246.73
2023-07-06T02:15:01.570Z,246.13
2023-07-06T02:16:01.654Z,245.07
2023-07-06T02:17:01.770Z,245.83
2023-07-06T02:18:01.843Z,246.17
2023-07-06T02:19:01.912Z,244.33
2023-07-06T02:20:01.980Z,245.96
2023-07-06T02:21:02.147Z,246.08
2023-07-06T02:22:02.151Z,245.50
2023-07-06T02:23:02.226Z,245.89
2023-07-06T02:24:02.310Z,245.63
2023-07-06T02:25:02.395Z,244.45
2023-07-06T02:26:02.488Z,245.96
2023-07-06T02:27:02.574Z,245.64
2023-07-06T02:28:02.652Z,245.04
2023-07-06T02:29:02.755Z,245.58
2023-07-06T02:30:02.847Z,244.77
2023-07-06T02:31:02.984Z,244.91
2023-07-06T02:32:02.991Z,243.28
2023-07-06T02:33:03.114Z,243.20
2023-07-06T02:34:03.202Z,242.42
2023-07-06T02:35:03.311Z,243.60
2023-07-06T02:36:03.389Z,243.02
2023-07-06T02:37:03.480Z,241.93
2023-07-06T02:38:03.600Z,242.07
2023-07-06T02:39:03.687Z,243.01
2023-07-06T02:40:03.811Z,243.57
2023-07-06T02:41:03.909Z,243.32
2023-07-06T02:42:03.998Z,243.96
2023-07-06T02:43:04.121Z,243.46
2023-07-06T02:44:04.162Z,243.36
2023-07-06T02:45:04.208Z,242.67
2023-07-06T02:46:04.349Z,242.70
2023-07-06T02:47:04.382Z,243.43
2023-07-06T02:48:04.544Z,242.84
2023-07-06T02:49:04.588Z,242.76
2023-07-06T02:50:04.684Z,242.42
2023-07-06T02:51:04.781Z,242.70
2023-07-06T02:52:04.856Z,243.51
2023-07-06T02:53:04.940Z,241.67
2023-07-06T02:54:05.039Z,242.07
2023-07-06T02:55:05.130Z,241.33
2023-07-06T02:56:05.234Z,241.20
2023-07-06T02:57:05.300Z,241.55
2023-07-06T02:58:05.376Z,240.73
2023-07-06T02:59:05.451Z,240.19
2023-07-06T03:00:05.529Z,240.33
2023-07-06T03:01:05.599Z,239.40
2023-07-06T03:02:05.693Z,239.68
2023-07-06T03:03:05.730Z,239.38
2023-07-06T03:04:05.825Z,241.32
2023-07-06T03:05:05.927Z,239.92
2023-07-06T03:06:05.933Z,239.99
2023-07-06T03:07:05.986Z,239.81
2023-07-06T03:08:06.042Z,234.93
2023-07-06T03:09:06.105Z,229.18
2023-07-06T03:10:06.155Z,225.14
2023-07-06T03:11:06.207Z,221.88
2023-07-06T03:12:06.250Z,218.52
2023-07-06T03:13:06.317Z,216.22
2023-07-06T03:14:06.360Z,213.40
2023-07-06T03:15:06.406Z,209.03
2023-07-06T03:16:06.487Z,204.39
2023-07-06T03:17:06.516Z,201.65
2023-07-06T03:18:06.583Z,198.69
2023-07-06T03:19:06.663Z,196.88
2023-07-06T03:20:06.713Z,193.56
2023-07-06T03:21:06.793Z,191.47
2023-07-06T03:22:06.860Z,189.47
2023-07-06T03:23:06.938Z,188.23
2023-07-06T03:24:06.986Z,187.07
2023-07-06T03:25:07.041Z,185.13
2023-07-06T03:26:07.097Z,183.62
2023-07-06T03:27:07.130Z,182.16
2023-07-06T03:28:07.179Z,180.90
2023-07-06T03:29:07.233Z,179.29
2023-07-06T03:30:07.292Z,178.40
2023-07-06T03:31:07.379Z,177.30
2023-07-06T03:32:07.411Z,176.91
2023-07-06T03:33:07.494Z,176.10
2023-07-06T03:34:07.624Z,175.81
2023-07-06T03:35:07.555Z,175.11
2023-07-06T03:36:07.610Z,175.26
2023-07-06T03:37:07.697Z,174.53
2023-07-06T03:38:07.725Z,173.38
2023-07-06T03:39:07.797Z,174.16
2023-07-06T03:40:07.849Z,175.14
2023-07-06T03:41:07.940Z,174.59
2023-07-06T03:42:08.033Z,174.42
2023-07-06T03:43:08.144Z,173.80
2023-07-06T03:44:08.226Z,175.00
2023-07-06T03:45:08.364Z,175.17
2023-07-06T03:46:08.492Z,175.79
2023-07-06T03:47:08.609Z,175.49
2023-07-06T03:48:08.653Z,175.39
2023-07-06T03:49:08.768Z,176.13
2023-07-06T03:50:08.869Z,176.14
2023-07-06T03:51:09.000Z,175.86
2023-07-06T03:52:09.080Z,175.82
2023-07-06T03:53:09.191Z,176.08
2023-07-06T03:54:09.304Z,177.05
2023-07-06T03:55:09.465Z,177.80
2023-07-06T03:56:09.522Z,178.41
2023-07-06T03:57:09.637Z,179.23
2023-07-06T03:58:09.788Z,179.37
2023-07-06T03:59:09.870Z,179.84
2023-07-06T04:00:09.973Z,180.62
2023-07-06T04:01:10.107Z,180.81
2023-07-06T04:02:10.190Z,181.15
2023-07-06T04:03:10.358Z,180.87
2023-07-06T04:04:10.410Z,180.62
2023-07-06T04:05:10.527Z,181.77
2023-07-06T04:06:10.640Z,181.52
2023-07-06T04:07:10.748Z,182.02
2023-07-06T04:08:10.855Z,182.85
2023-07-06T04:09:10.990Z,184.02
2023-07-06T04:10:11.098Z,185.88
2023-07-06T04:11:11.134Z,185.95
2023-07-06T04:12:11.201Z,186.23
2023-07-06T04:13:11.403Z,187.34
2023-07-06T04:14:11.310Z,188.68
2023-07-06T04:15:11.365Z,191.67
2023-07-06T04:16:11.414Z,193.02
2023-07-06T04:17:11.488Z,193.83
2023-07-06T04:18:11.621Z,195.17
2023-07-06T04:19:11.596Z,197.54
2023-07-06T04:20:11.671Z,197.88
2023-07-06T04:21:11.716Z,199.53
2023-07-06T04:22:11.819Z,201.01
2023-07-06T04:23:11.932Z,200.88
2023-07-06T04:24:12.054Z,201.43
2023-07-06T04:25:12.179Z,202.05
2023-07-06T04:26:12.294Z,203.30
2023-07-06T04:27:12.419Z,203.04
2023-07-06T04:28:12.543Z,203.31
2023-07-06T04:29:12.660Z,203.48
2023-07-06T04:30:12.778Z,203.53
2023-07-06T04:31:12.937Z,204.43
2023-07-06T04:32:13.003Z,204.47
2023-07-06T04:33:13.117Z,204.90
2023-07-06T04:34:13.257Z,206.00
2023-07-06T04:35:13.366Z,206.10
2023-07-06T04:36:13.494Z,206.43
2023-07-06T04:37:13.611Z,207.22
2023-07-06T04:38:13.732Z,207.54
2023-07-06T04:39:13.793Z,207.58
2023-07-06T04:40:13.848Z,207.64
2023-07-06T04:41:13.910Z,207.21
2023-07-06T04:42:13.975Z,206.71
2023-07-06T04:43:14.034Z,207.53
2023-07-06T04:44:14.095Z,207.41
2023-07-06T04:45:14.168Z,207.55
2023-07-06T04:46:14.228Z,208.91
2023-07-06T04:47:14.301Z,208.37
2023-07-06T04:48:14.326Z,206.94
2023-07-06T04:49:14.414Z,207.70
2023-07-06T04:50:14.532Z,207.02
2023-07-06T04:51:14.642Z,206.71
2023-07-06T04:52:14.766Z,205.92
2023-07-06T04:53:14.888Z,206.93
2023-07-06T04:54:14.949Z,206.97
2023-07-06T04:55:15.000Z,207.04
2023-07-06T04:56:15.061Z,207.08
2023-07-06T04:57:15.122Z,207.20
2023-07-06T04:58:15.171Z,207.14
2023-07-06T04:59:15.231Z,207.36
2023-07-06T05:00:15.302Z,207.95
2023-07-06T05:01:15.416Z,208.15
2023-07-06T05:02:15.407Z,208.00
2023-07-06T05:03:15.553Z,208.19
2023-07-06T05:04:15.583Z,208.88
2023-07-06T05:05:15.716Z,210.08
2023-07-06T05:06:15.848Z,210.80
2023-07-06T05:07:15.959Z,212.64
2023-07-06T05:08:16.089Z,212.16
2023-07-06T05:09:16.247Z,214.21
2023-07-06T05:10:16.354Z,216.82
2023-07-06T05:11:16.437Z,218.27
2023-07-06T05:12:16.565Z,219.68
2023-07-06T05:13:16.761Z,221.44
2023-07-06T05:14:16.744Z,222.28
2023-07-06T05:15:16.882Z,223.32
2023-07-06T05:16:16.917Z,224.77
2023-07-06T05:17:17.017Z,226.53
2023-07-06T05:18:17.097Z,227.28
2023-07-06T05:19:17.177Z,228.59
2023-07-06T05:20:17.255Z,228.86
2023-07-06T05:21:17.320Z,230.26
2023-07-06T05:22:19.060Z,232.00
2023-07-06T05:23:17.470Z,232.53
2023-07-06T05:24:17.582Z,232.80
2023-07-06T05:25:17.637Z,233.52
2023-07-06T05:26:17.710Z,233.40
2023-07-06T05:27:17.773Z,233.99
2023-07-06T05:28:17.857Z,235.10
2023-07-06T05:29:17.921Z,235.85
2023-07-06T05:30:20.787Z,236.99
2023-07-06T05:31:18.101Z,237.05
2023-07-06T05:32:18.110Z,237.43
2023-07-06T05:33:18.151Z,237.94
2023-07-06T05:34:18.203Z,238.87
2023-07-06T05:35:18.296Z,240.49
2023-07-06T05:36:18.297Z,241.94
2023-07-06T05:37:34.065Z,242.93
2023-07-06T05:38:19.395Z,243.05
2023-07-06T05:39:18.440Z,243.25
2023-07-06T05:40:18.511Z,241.96
2023-07-06T05:41:18.536Z,239.40
2023-07-06T05:42:18.595Z,237.91
2023-07-06T05:43:18.646Z,237.37
2023-07-06T05:44:18.686Z,235.16
2023-07-06T05:45:18.731Z,234.83
2023-07-06T05:46:18.820Z,233.73
2023-07-06T05:47:18.906Z,233.18
2023-07-06T05:48:18.925Z,232.48
2023-07-06T05:49:18.972Z,232.25
2023-07-06T05:50:19.051Z,231.39
2023-07-06T05:51:19.073Z,232.04
2023-07-06T05:52:19.141Z,232.31
2023-07-06T05:53:19.183Z,231.54
2023-07-06T05:54:19.248Z,231.28
2023-07-06T05:55:19.298Z,231.35
2023-07-06T05:56:19.401Z,231.36
2023-07-06T05:57:19.401Z,231.20
2023-07-06T05:58:19.459Z,229.88
2023-07-06T05:59:19.526Z,229.97
2023-07-06T06:00:19.576Z,229.29
2023-07-06T06:01:19.637Z,228.50
2023-07-06T06:02:19.756Z,228.48
2023-07-06T06:03:19.737Z,227.20
2023-07-06T06:04:19.873Z,227.02
2023-07-06T06:05:19.860Z,226.54
2023-07-06T06:06:19.935Z,226.66
2023-07-06T06:07:19.965Z,225.66
2023-07-06T06:08:20.021Z,224.95
2023-07-06T06:09:20.103Z,224.64
2023-07-06T06:10:20.207Z,225.28
2023-07-06T06:11:20.341Z,225.19
2023-07-06T06:12:20.524Z,224.75
2023-07-06T06:13:20.574Z,224.34
2023-07-06T06:14:20.694Z,225.13
2023-07-06T06:15:20.762Z,225.31
2023-07-06T06:16:20.896Z,225.32
2023-07-06T06:17:21.084Z,225.21
2023-07-06T06:18:21.093Z,225.12
2023-07-06T06:19:21.221Z,225.05
2023-07-06T06:20:21.342Z,225.31
2023-07-06T06:21:21.412Z,224.50
2023-07-06T06:22:21.535Z,225.08
2023-07-06T06:23:21.627Z,224.78
2023-07-06T06:24:21.757Z,225.19
2023-07-06T06:25:21.864Z,225.64
2023-07-06T06:26:21.968Z,224.57
2023-07-06T06:27:22.059Z,225.13
2023-07-06T06:28:22.180Z,224.99
2023-07-06T06:29:22.279Z,225.69
2023-07-06T06:30:22.380Z,225.73
2023-07-06T06:31:22.521Z,226.84
2023-07-06T06:32:22.623Z,227.86
2023-07-06T06:33:22.695Z,228.93
2023-07-06T06:34:22.808Z,230.14
2023-07-06T06:35:22.997Z,231.66
2023-07-06T06:36:23.055Z,232.29
2023-07-06T06:37:23.125Z,234.40
2023-07-06T06:38:23.245Z,235.00
2023-07-06T06:39:23.360Z,235.40
2023-07-06T06:40:23.459Z,235.69
2023-07-06T06:41:23.553Z,235.09
2023-07-06T06:42:23.664Z,235.59
2023-07-06T06:43:23.770Z,235.44
2023-07-06T06:44:23.880Z,235.68
2023-07-06T06:45:24.006Z,235.38
2023-07-06T06:46:24.259Z,235.32
2023-07-06T06:47:24.237Z,235.75
2023-07-06T06:48:24.334Z,236.97
2023-07-06T06:49:24.441Z,236.97
2023-07-06T06:50:24.558Z,236.79
2023-07-06T06:51:24.666Z,236.42
2023-07-06T06:52:24.784Z,236.18
2023-07-06T06:53:24.871Z,235.74
2023-07-06T06:54:24.989Z,235.20
2023-07-06T06:55:25.045Z,235.30
2023-07-06T06:56:25.107Z,235.51
2023-07-06T06:57:25.184Z,235.71
2023-07-06T06:58:25.224Z,235.91
2023-07-06T06:59:25.290Z,236.63
2023-07-06T07:00:25.330Z,236.84
2023-07-06T07:01:25.453Z,236.54
2023-07-06T07:02:25.463Z,237.92
2023-07-06T07:03:25.525Z,237.13
2023-07-06T07:04:25.558Z,236.23
2023-07-06T07:05:25.611Z,237.24
2023-07-06T07:06:25.663Z,235.57
2023-07-06T07:07:25.721Z,235.39
2023-07-06T07:08:25.816Z,234.45
2023-07-06T07:09:25.918Z,234.50
2023-07-06T07:10:26.026Z,234.36
2023-07-06T07:11:26.129Z,234.78
2023-07-06T07:12:26.251Z,234.94
2023-07-06T07:13:26.385Z,235.83
2023-07-06T07:14:26.411Z,235.98
2023-07-06T07:15:26.475Z,236.85
2023-07-06T07:16:26.586Z,241.30
2023-07-06T07:17:26.612Z,249.19
2023-07-06T07:18:26.660Z,262.49
2023-07-06T07:19:26.709Z,257.29
2023-07-06T07:20:26.776Z,249.84
2023-07-06T07:21:26.816Z,249.60
2023-07-06T07:22:27.388Z,250.00
2023-07-06T07:23:26.908Z,250.14
2023-07-06T07:24:27.023Z,250.54
2023-07-06T07:25:29.470Z,251.40
2023-07-06T07:26:27.166Z,250.20
2023-07-06T07:27:27.142Z,250.88
2023-07-06T07:28:27.191Z,252.58
2023-07-06T07:29:27.283Z,256.43
2023-07-06T07:30:27.348Z,261.08
2023-07-06T07:31:27.380Z,250.49
2023-07-06T07:32:27.417Z,252.22
2023-07-06T07:33:27.437Z,254.94
2023-07-06T07:34:27.506Z,258.40
2023-07-06T07:35:27.572Z,264.96
2023-07-06T07:36:27.650Z,257.85
2023-07-06T07:37:27.676Z,249.54
2023-07-06T07:38:27.711Z,250.00
2023-07-06T07:39:27.834Z,250.00
2023-07-06T07:40:27.796Z,250.00
2023-07-06T07:41:27.831Z,249.07
2023-07-06T07:42:27.897Z,250.01
2023-07-06T07:43:27.942Z,250.00
2023-07-06T07:44:27.976Z,249.90
2023-07-06T07:45:28.089Z,249.73
2023-07-06T07:46:28.156Z,246.26
2023-07-06T07:47:28.219Z,245.15
2023-07-06T07:48:28.154Z,237.35
2023-07-06T07:49:28.256Z,229.93
2023-07-06T07:50:28.255Z,224.68
2023-07-06T07:51:28.296Z,222.91
2023-07-06T07:52:28.321Z,218.96
2023-07-06T07:53:28.367Z,214.33
2023-07-06T07:54:28.417Z,210.06
2023-07-06T07:55:28.481Z,206.01
2023-07-06T07:56:28.510Z,204.52
2023-07-06T07:57:28.551Z,201.15
2023-07-06T07:58:28.689Z,199.04
2023-07-06T07:59:28.682Z,197.10
2023-07-06T08:00:28.712Z,195.32
2023-07-06T08:01:28.796Z,193.25
2023-07-06T08:02:28.860Z,191.83
2023-07-06T08:03:28.898Z,191.16
2023-07-06T08:04:28.895Z,187.45
2023-07-06T08:05:28.929Z,187.68
2023-07-06T08:06:29.015Z,185.81
2023-07-06T08:07:29.035Z,183.66
2023-07-06T08:08:29.089Z,185.58
2023-07-06T08:09:29.133Z,184.76
2023-07-06T08:10:29.168Z,185.94
2023-07-06T08:11:29.214Z,185.08
2023-07-06T08:12:29.266Z,184.89
2023-07-06T08:13:29.350Z,186.26
2023-07-06T08:14:29.359Z,184.83
2023-07-06T08:15:29.410Z,185.91
2023-07-06T08:16:29.530Z,185.83
2023-07-06T08:17:29.507Z,185.11
2023-07-06T08:18:29.560Z,184.30
2023-07-06T08:19:41.655Z,183.90
2023-07-06T08:21:28.207Z,183.92
2023-07-06T08:21:51.634Z,183.93
2023-07-06T08:22:30.755Z,183.95
2023-07-06T08:23:29.784Z,184.15
2023-07-06T08:24:29.826Z,185.70
2023-07-06T08:25:29.878Z,189.25
2023-07-06T08:26:29.941Z,196.20
2023-07-06T08:27:29.933Z,204.63
2023-07-06T08:28:29.989Z,184.81
2023-07-06T08:29:30.039Z,187.96
2023-07-06T08:30:30.054Z,193.03
2023-07-06T08:31:30.159Z,200.14
2023-07-06T08:32:30.161Z,209.42
2023-07-06T08:33:30.165Z,211.18
2023-07-06T08:34:30.212Z,212.91
2023-07-06T08:35:30.237Z,212.96
2023-07-06T08:36:30.265Z,214.70
2023-07-06T08:37:30.320Z,214.98
2023-07-06T08:38:30.347Z,215.46
2023-07-06T08:39:30.387Z,216.97
2023-07-06T08:40:30.428Z,217.72
2023-07-06T08:41:30.463Z,218.07
2023-07-06T08:42:30.523Z,217.57
2023-07-06T08:43:30.549Z,216.95
2023-07-06T08:44:30.592Z,217.33
2023-07-06T08:45:30.653Z,216.69
2023-07-06T08:46:30.737Z,217.41
2023-07-06T08:47:30.835Z,215.49
2023-07-06T08:48:30.926Z,213.46
2023-07-06T08:49:31.338Z,211.85
2023-07-06T08:50:31.152Z,211.09
2023-07-06T08:51:31.262Z,211.29
2023-07-06T08:52:31.362Z,211.00
2023-07-06T08:53:31.481Z,212.49
2023-07-06T08:54:31.588Z,212.70
2023-07-06T08:55:31.706Z,213.16
2023-07-06T08:56:31.811Z,213.45
2023-07-06T08:57:31.976Z,211.50
2023-07-06T08:58:32.093Z,204.37
2023-07-06T08:59:32.155Z,197.05
2023-07-06T09:00:32.254Z,190.91
2023-07-06T09:01:32.346Z,184.63
2023-07-06T09:02:32.428Z,178.88
2023-07-06T09:03:32.502Z,173.72
2023-07-06T09:04:32.576Z,166.70
2023-07-06T09:05:32.725Z,163.49
2023-07-06T09:06:32.804Z,158.92
2023-07-06T09:07:32.889Z,155.30
2023-07-06T09:08:32.971Z,151.34
2023-07-06T09:09:33.109Z,149.02
2023-07-06T09:10:33.127Z,149.95
2023-07-06T09:11:33.220Z,153.81
2023-07-06T09:12:33.281Z,157.46
2023-07-06T09:13:33.416Z,159.29
2023-07-06T09:14:33.469Z,164.52
2023-07-06T09:15:35.911Z,173.83
2023-07-06T09:16:33.598Z,174.01
2023-07-06T09:17:33.635Z,175.41
2023-07-06T09:18:33.636Z,174.54
2023-07-06T09:19:33.677Z,177.49
2023-07-06T09:20:33.710Z,183.97
2023-07-06T09:21:33.750Z,193.68
2023-07-06T09:22:33.800Z,206.79
2023-07-06T09:23:33.854Z,211.83
2023-07-06T09:24:33.871Z,213.77
2023-07-06T09:25:33.909Z,215.74
2023-07-06T09:26:34.325Z,217.04
2023-07-06T09:27:34.076Z,218.91
2023-07-06T09:28:34.116Z,221.77
2023-07-06T09:29:34.225Z,223.09
2023-07-06T09:30:34.405Z,224.45
2023-07-06T09:31:34.378Z,224.53
2023-07-06T09:32:34.904Z,224.70
2023-07-06T09:33:34.482Z,225.72
2023-07-06T09:34:34.503Z,224.64
2023-07-06T09:35:34.542Z,225.45
2023-07-06T09:36:34.576Z,227.18
2023-07-06T09:37:34.623Z,229.68
2023-07-06T09:38:34.665Z,224.82
2023-07-06T09:39:34.712Z,226.22
2023-07-06T09:40:34.737Z,228.91
2023-07-06T09:41:34.774Z,232.27
2023-07-06T09:42:34.859Z,237.92
2023-07-06T09:43:34.866Z,238.94
2023-07-06T09:44:34.908Z,240.05
2023-07-06T09:45:34.918Z,239.21
2023-07-06T09:46:34.977Z,240.88
2023-07-06T09:47:35.096Z,242.38
2023-07-06T09:48:35.141Z,242.43
2023-07-06T09:49:35.233Z,242.44
2023-07-06T09:50:35.333Z,243.52
2023-07-06T09:51:35.420Z,243.30
2023-07-06T09:52:35.507Z,244.08
2023-07-06T09:53:35.594Z,245.95
2023-07-06T09:54:35.681Z,246.67
2023-07-06T09:55:35.767Z,246.85
2023-07-06T09:56:35.855Z,245.94
2023-07-06T09:57:35.941Z,246.36
2023-07-06T09:58:35.976Z,246.47
2023-07-06T09:59:36.010Z,246.78
2023-07-06T10:00:36.030Z,246.96
2023-07-06T10:01:36.096Z,247.71
2023-07-06T10:02:36.144Z,248.26
2023-07-06T10:03:36.133Z,248.79
2023-07-06T10:04:36.160Z,249.78
2023-07-06T10:05:36.258Z,249.08
2023-07-06T10:06:36.193Z,249.32
2023-07-06T10:07:36.221Z,249.61
2023-07-06T10:08:36.270Z,249.81
2023-07-06T10:09:36.356Z,249.09
2023-07-06T10:10:36.449Z,250.00
2023-07-06T10:11:36.506Z,248.98
2023-07-06T10:12:36.573Z,249.43
2023-07-06T10:13:36.708Z,249.40
2023-07-06T10:14:36.734Z,249.38
2023-07-06T10:15:36.837Z,249.82
2023-07-06T10:16:36.892Z,249.17
2023-07-06T10:17:37.067Z,249.19
2023-07-06T10:18:36.982Z,249.26
2023-07-06T10:19:37.020Z,249.24
2023-07-06T10:20:37.039Z,249.41
2023-07-06T10:21:37.077Z,249.62
2023-07-06T10:22:37.084Z,250.10
2023-07-06T10:23:37.127Z,249.32
2023-07-06T10:24:37.148Z,249.61
2023-07-06T10:25:37.182Z,249.13
2023-07-06T10:26:37.205Z,249.13
2023-07-06T10:27:37.232Z,248.76
2023-07-06T10:28:37.302Z,249.90
2023-07-06T10:29:37.285Z,248.61
2023-07-06T10:30:37.362Z,249.80
2023-07-06T10:31:37.479Z,248.59
2023-07-06T10:32:37.534Z,249.03
2023-07-06T10:33:37.592Z,249.47
2023-07-06T10:34:37.664Z,248.24
2023-07-06T10:35:37.756Z,249.75
2023-07-06T10:36:37.816Z,248.96
2023-07-06T10:37:37.885Z,249.06
2023-07-06T10:38:37.966Z,249.13
2023-07-06T10:39:37.992Z,249.23
2023-07-06T10:40:38.023Z,249.34
2023-07-06T10:41:38.056Z,249.71
2023-07-06T10:42:38.079Z,250.14
2023-07-06T10:43:38.109Z,250.30
2023-07-06T10:44:38.136Z,248.64
2023-07-06T10:45:38.179Z,248.73
2023-07-06T10:46:38.297Z,248.30
2023-07-06T10:47:38.235Z,248.94
2023-07-06T10:48:38.249Z,248.33
2023-07-06T10:49:38.281Z,247.56
2023-07-06T10:50:38.317Z,248.52
2023-07-06T10:51:38.380Z,247.95
2023-07-06T10:52:38.433Z,247.70
2023-07-06T10:53:38.522Z,247.92
2023-07-06T10:54:38.660Z,249.21
2023-07-06T10:55:38.681Z,248.11
2023-07-06T10:56:38.728Z,249.02
2023-07-06T10:57:38.804Z,247.71
2023-07-06T10:58:38.885Z,248.91
2023-07-06T10:59:38.942Z,248.18
2023-07-06T11:00:39.027Z,248.43
2023-07-06T11:01:39.161Z,248.82
2023-07-06T11:02:39.185Z,248.91
2023-07-06T11:03:39.332Z,249.20
2023-07-06T11:04:39.925Z,248.23
2023-07-06T11:05:39.396Z,249.25
2023-07-06T11:06:39.483Z,248.71
2023-07-06T11:07:39.553Z,248.41
2023-07-06T11:08:39.619Z,249.25
2023-07-06T11:09:39.704Z,249.28
2023-07-06T11:10:41.434Z,249.28
2023-07-06T11:11:40.103Z,249.26
2023-07-06T11:12:40.132Z,248.37
2023-07-06T11:13:40.254Z,249.94
2023-07-06T11:14:40.285Z,247.25
2023-07-06T11:15:40.447Z,241.76
2023-07-06T11:16:40.492Z,241.46
2023-07-06T11:17:40.417Z,238.76
2023-07-06T11:18:40.446Z,238.35
2023-07-06T11:19:40.454Z,237.91
2023-07-06T11:20:40.485Z,237.93
2023-07-06T11:21:40.527Z,235.43
2023-07-06T11:22:40.529Z,234.62
2023-07-06T11:23:40.570Z,233.61
2023-07-06T11:24:40.592Z,232.04
2023-07-06T11:25:40.599Z,231.33
2023-07-06T11:26:40.664Z,231.38
2023-07-06T11:27:40.669Z,230.28
2023-07-06T11:28:40.724Z,227.73
2023-07-06T11:29:40.800Z,230.76
2023-07-06T11:30:40.893Z,234.60
2023-07-06T11:31:40.970Z,233.83
2023-07-06T11:32:41.042Z,235.58
2023-07-06T11:33:41.124Z,236.75
2023-07-06T11:34:41.210Z,236.79
2023-07-06T11:35:41.237Z,236.88
2023-07-06T11:36:41.262Z,237.06
2023-07-06T11:37:53.572Z,237.51
2023-07-06T11:38:42.318Z,236.93
2023-07-06T11:39:41.348Z,236.99
2023-07-06T11:40:41.370Z,237.52
2023-07-06T11:41:41.408Z,238.16
2023-07-06T11:42:41.412Z,239.51
2023-07-06T11:43:41.464Z,239.71
2023-07-06T11:44:41.474Z,238.29
2023-07-06T11:45:41.507Z,232.48
2023-07-06T11:46:41.529Z,228.27
2023-07-06T11:47:41.563Z,223.80
2023-07-06T11:48:41.576Z,219.65
2023-07-06T11:49:41.624Z,216.57
2023-07-06T11:50:41.635Z,211.00
2023-07-06T11:51:41.671Z,206.23
2023-07-06T11:52:41.691Z,201.25
2023-07-06T11:53:41.721Z,197.12
2023-07-06T11:54:41.791Z,193.81
2023-07-06T11:55:41.788Z,186.46
2023-07-06T11:56:41.816Z,181.84
2023-07-06T11:57:41.847Z,178.29
2023-07-06T11:58:41.859Z,176.43
2023-07-06T11:59:41.979Z,174.41
2023-07-06T12:00:41.946Z,170.62
2023-07-06T12:01:42.137Z,168.46
2023-07-06T12:02:42.040Z,166.70
2023-07-06T12:03:42.063Z,165.51
2023-07-06T12:04:42.117Z,164.06
2023-07-06T12:05:42.119Z,161.92
2023-07-06T12:06:42.116Z,159.93
2023-07-06T12:07:42.148Z,158.57
2023-07-06T12:08:42.194Z,158.16
2023-07-06T12:09:42.212Z,156.00
2023-07-06T12:10:42.268Z,155.80
2023-07-06T12:11:42.293Z,154.64
2023-07-06T12:12:42.316Z,153.98
2023-07-06T12:13:42.439Z,152.25
2023-07-06T12:14:42.371Z,151.64
2023-07-06T12:15:42.491Z,150.23
2023-07-06T12:16:42.507Z,149.43
2023-07-06T12:17:42.511Z,149.50
2023-07-06T12:18:42.530Z,150.17
2023-07-06T12:19:42.532Z,149.72
2023-07-06T12:20:42.548Z,151.03
2023-07-06T12:21:42.582Z,153.85
2023-07-06T12:22:42.609Z,149.99
2023-07-06T12:23:42.661Z,151.90
2023-07-06T12:24:42.686Z,155.87
2023-07-06T12:25:42.764Z,164.11
2023-07-06T12:26:42.733Z,176.59
2023-07-06T12:27:42.762Z,179.57
2023-07-06T12:28:42.795Z,183.06
2023-07-06T12:29:42.829Z,185.92